Time;durP1;ratioP1;P1;durP2;ratioP2;P2;SDS_P1;SDS_P2;PMS_P1;PMS_P2;Temp;Humidity;BMP_temperature;BMP_pressure;BME280_temperature;BME280_humidity;BME280_pressure;Samples;Min_cycle;Max_cycle;Signal;HPM_P1;HPM_P2
2023/05/22 00:02:07;;;;;;;24.02;21.05;;;17.20;99.90;;;;;;5068038;28;20788;-63
2023/05/22 00:04:33;;;;;;;23.67;20.70;;;17.20;99.90;;;;;;5068036;28;20394;-62
2023/05/22 00:06:58;;;;;;;24.27;20.88;;;17.20;99.90;;;;;;5068521;28;20379;-62
2023/05/22 00:09:27;;;;;;;28.73;21.98;;;17.20;99.90;;;;;;5068812;28;20069;-61
2023/05/22 00:11:53;;;;;;;25.52;21.63;;;17.20;99.90;;;;;;5051548;28;20487;-64
2023/05/22 00:14:18;;;;;;;23.52;19.92;;;17.20;99.90;;;;;;5069937;28;20041;-61
2023/05/22 00:16:47;;;;;;;27.35;22.70;;;17.20;99.90;;;;;;5068538;28;20087;-62
2023/05/22 00:19:15;;;;;;;28.17;21.70;;;17.20;99.90;;;;;;5068778;28;20072;-63
2023/05/22 00:21:45;;;;;;;26.63;22.17;;;17.20;99.90;;;;;;5069813;28;20059;-63
2023/05/22 00:24:11;;;;;;;30.45;24.85;;;17.20;99.90;;;;;;5068832;28;20051;-61
2023/05/22 00:26:37;;;;;;;30.20;23.98;;;17.20;99.90;;;;;;5068289;28;20033;-64
2023/05/22 00:29:04;;;;;;;29.30;23.23;;;17.10;99.90;;;;;;5069753;28;20547;-62
2023/05/22 00:31:30;;;;;;;30.25;24.40;;;17.10;99.90;;;;;;5069666;28;20028;-63
2023/05/22 00:33:56;;;;;;;28.70;24.50;;;17.10;99.90;;;;;;5068462;28;20041;-62
2023/05/22 00:36:22;;;;;;;29.98;23.35;;;17.10;99.90;;;;;;5069617;28;20131;-62
2023/05/22 00:38:48;;;;;;;27.80;21.90;;;17.00;99.90;;;;;;5069314;28;20171;-62
2023/05/22 00:41:13;;;;;;;26.73;21.48;;;17.00;99.90;;;;;;5068308;28;20488;-62
2023/05/22 00:43:39;;;;;;;22.33;20.02;;;17.00;99.90;;;;;;5069563;28;20040;-63
2023/05/22 00:46:06;;;;;;;30.65;22.85;;;17.00;99.90;;;;;;5069580;28;20115;-61
2023/05/22 00:48:32;;;;;;;26.05;21.38;;;17.00;99.90;;;;;;5069712;28;20106;-61
2023/05/22 00:50:58;;;;;;;24.85;21.98;;;17.00;99.90;;;;;;5068108;28;20040;-63
2023/05/22 00:53:27;;;;;;;24.67;19.27;;;17.00;99.90;;;;;;5068257;28;20401;-63
2023/05/22 00:55:53;;;;;;;28.23;22.23;;;17.00;99.90;;;;;;5068024;28;20040;-60
2023/05/22 00:58:20;;;;;;;25.85;20.92;;;16.90;99.90;;;;;;5068213;28;20036;-62
2023/05/22 01:00:46;;;;;;;27.38;20.42;;;16.90;99.90;;;;;;5068282;28;20475;-61
2023/05/22 01:03:13;;;;;;;21.83;18.98;;;16.90;99.90;;;;;;5069408;28;20032;-63
2023/05/22 01:05:40;;;;;;;26.67;20.50;;;16.90;99.90;;;;;;5068144;28;20098;-64
2023/05/22 01:08:06;;;;;;;21.67;19.35;;;16.90;99.90;;;;;;5069228;28;20048;-64
2023/05/22 01:10:34;;;;;;;21.13;18.83;;;16.90;99.90;;;;;;5068183;28;20031;-63
2023/05/22 01:13:28;;;;;;;22.40;18.88;;;16.90;99.90;;;;;;5069362;28;20098;-63
2023/05/22 01:16:00;;;;;;;21.10;18.33;;;16.80;99.90;;;;;;5069227;28;20570;-63
2023/05/22 01:18:45;;;;;;;23.98;19.83;;;16.80;99.90;;;;;;5067751;28;20090;-61
2023/05/22 01:21:48;;;;;;;20.98;18.60;;;16.80;99.90;;;;;;5069240;28;20415;-61
2023/05/22 01:24:40;;;;;;;22.35;18.27;;;16.80;99.90;;;;;;5067683;28;20072;-63
2023/05/22 01:27:18;;;;;;;;;;;16.80;99.90;;;;;;5068570;28;20064;-62
2023/05/22 01:29:46;;;;;;;22.48;18.42;;;16.80;99.90;;;;;;5051190;28;19920;-61
2023/05/22 01:32:16;;;;;;;22.13;19.58;;;16.80;99.90;;;;;;5067703;28;20071;-61
2023/05/22 01:34:44;;;;;;;22.98;20.58;;;16.80;99.90;;;;;;5068929;28;20098;-60
2023/05/22 01:37:12;;;;;;;26.50;21.52;;;16.70;99.90;;;;;;5069103;28;20044;-63
2023/05/22 01:39:39;;;;;;;24.48;20.35;;;16.70;99.90;;;;;;5069284;28;20101;-62
2023/05/22 01:42:05;;;;;;;25.88;22.42;;;16.70;99.90;;;;;;5067684;28;20048;-61
2023/05/22 01:44:30;;;;;;;26.15;22.10;;;16.70;99.90;;;;;;5067835;28;20424;-62
2023/05/22 01:46:59;;;;;;;24.63;21.13;;;16.70;99.90;;;;;;5069187;28;20041;-63
2023/05/22 01:49:27;;;;;;;24.33;21.52;;;16.70;99.90;;;;;;5070159;28;20048;-64
2023/05/22 01:52:08;;;;;;;22.98;20.10;;;16.70;99.90;;;;;;5071389;28;20040;-60
2023/05/22 01:55:08;;;;;;;24.85;21.13;;;16.70;99.90;;;;;;5072649;28;20411;-63
2023/05/22 01:57:44;;;;;;;24.20;19.70;;;16.70;99.90;;;;;;5054462;28;20033;-64
2023/05/22 02:00:13;;;;;;;25.75;20.48;;;16.70;99.90;;;;;;5071486;28;20076;-61
2023/05/22 02:02:43;;;;;;;21.58;19.23;;;16.60;99.90;;;;;;5072451;28;20173;-65
2023/05/22 02:05:11;;;;;;;23.52;20.75;;;16.70;99.90;;;;;;5071354;28;20079;-62
2023/05/22 02:07:39;;;;;;;24.48;21.85;;;16.70;99.90;;;;;;5072525;28;20040;-62
2023/05/22 02:10:08;;;;;;;23.42;20.90;;;16.60;99.90;;;;;;5071114;28;20048;-62
2023/05/22 02:12:34;;;;;;;25.23;21.95;;;16.60;99.90;;;;;;5072217;28;20525;-61
2023/05/22 02:15:00;;;;;;;23.90;19.98;;;16.60;99.90;;;;;;5072053;28;20080;-63
2023/05/22 02:17:26;;;;;;;23.13;20.48;;;16.60;99.90;;;;;;5072299;28;20081;-63
2023/05/22 02:19:51;;;;;;;23.38;20.33;;;16.60;99.90;;;;;;5072508;28;20542;-61
2023/05/22 02:22:17;;;;;;;24.52;19.52;;;16.60;99.90;;;;;;5071128;28;20135;-62
2023/05/22 02:24:46;;;;;;;23.02;20.63;;;16.60;99.90;;;;;;5072039;28;20079;-61
2023/05/22 02:27:12;;;;;;;23.23;20.73;;;16.60;99.90;;;;;;5054054;28;20102;-61
2023/05/22 02:29:38;;;;;;;24.35;21.75;;;16.60;99.90;;;;;;5072203;28;20053;-63
2023/05/22 02:32:04;;;;;;;27.67;23.48;;;16.60;99.90;;;;;;5072043;28;20036;-60
2023/05/22 02:34:33;;;;;;;24.05;21.45;;;16.60;99.90;;;;;;5070447;28;20086;-65
2023/05/22 02:37:02;;;;;;;27.50;23.42;;;16.60;99.90;;;;;;5070358;28;20048;-61
2023/05/22 02:39:29;;;;;;;26.00;22.02;;;16.50;99.90;;;;;;5071795;28;20158;-61
2023/05/22 02:41:54;;;;;;;25.75;22.90;;;16.50;99.90;;;;;;5071651;28;20036;-61
2023/05/22 02:44:20;;;;;;;26.83;23.95;;;16.50;99.90;;;;;;5071793;28;20479;-63
2023/05/22 02:46:46;;;;;;;24.50;21.35;;;16.40;99.90;;;;;;5071680;28;20121;-63
2023/05/22 02:49:12;;;;;;;24.58;21.98;;;16.50;99.90;;;;;;5071713;28;20076;-63
2023/05/22 02:51:38;;;;;;;25.42;21.75;;;16.50;99.90;;;;;;5070395;28;20076;-61
2023/05/22 02:54:04;;;;;;;25.15;22.40;;;16.40;99.90;;;;;;5071478;28;20037;-64
2023/05/22 02:56:30;;;;;;;27.80;22.85;;;16.50;99.90;;;;;;5071543;28;20395;-64
2023/05/22 02:58:58;;;;;;;26.50;22.73;;;16.50;99.90;;;;;;5070291;28;20048;-62
2023/05/22 03:01:25;;;;;;;26.92;23.05;;;16.50;99.90;;;;;;5071205;28;20464;-63
2023/05/22 03:03:51;;;;;;;30.60;25.00;;;16.50;99.90;;;;;;5071621;28;20032;-62
2023/05/22 03:06:17;;;;;;;27.85;24.48;;;16.50;99.90;;;;;;5069714;28;20044;-62
2023/05/22 03:08:43;;;;;;;27.00;22.98;;;16.50;99.90;;;;;;5071716;28;20041;-63
2023/05/22 03:11:09;;;;;;;25.83;22.50;;;16.50;99.90;;;;;;5069662;28;20052;-64
2023/05/22 03:13:35;;;;;;;26.40;23.60;;;16.50;99.90;;;;;;5071211;28;20032;-61
2023/05/22 03:16:01;;;;;;;28.05;21.95;;;16.40;99.90;;;;;;5071057;28;20040;-61
2023/05/22 03:18:27;;;;;;;25.67;22.55;;;16.50;99.90;;;;;;5071254;28;20029;-62
2023/05/22 03:20:52;;;;;;;28.75;23.88;;;16.40;99.90;;;;;;5070218;28;20044;-61
2023/05/22 03:23:20;;;;;;;25.50;22.25;;;16.40;99.90;;;;;;5069479;28;20093;-62
2023/05/22 03:25:46;;;;;;;26.85;23.30;;;16.40;99.90;;;;;;5069600;28;20048;-62
2023/05/22 03:28:13;;;;;;;30.13;24.85;;;16.40;99.90;;;;;;5069467;28;20472;-63
2023/05/22 03:30:38;;;;;;;28.05;23.73;;;16.40;99.90;;;;;;5069525;28;20036;-61
2023/05/22 03:33:04;;;;;;;26.60;23.50;;;16.40;99.90;;;;;;5070962;28;20097;-62
2023/05/22 03:35:30;;;;;;;27.10;22.77;;;16.40;99.90;;;;;;5070295;28;20072;-62
2023/05/22 03:37:55;;;;;;;31.23;24.65;;;16.50;99.90;;;;;;5070907;28;20036;-62
2023/05/22 03:40:21;;;;;;;29.02;25.45;;;16.50;99.90;;;;;;5070352;28;20036;-62
2023/05/22 03:42:48;;;;;;;27.73;23.73;;;16.50;99.90;;;;;;5070542;28;20029;-62
2023/05/22 03:45:14;;;;;;;25.75;22.95;;;16.40;99.90;;;;;;5070621;28;20398;-63
2023/05/22 03:47:39;;;;;;;28.67;25.00;;;16.50;99.90;;;;;;5069161;28;20041;-61
2023/05/22 03:50:05;;;;;;;28.50;25.40;;;16.40;99.90;;;;;;5069198;28;20045;-63
2023/05/22 03:52:31;;;;;;;30.40;26.80;;;16.40;99.90;;;;;;5070192;28;20043;-62
2023/05/22 03:54:57;;;;;;;32.42;26.30;;;16.40;99.90;;;;;;5070356;28;20400;-63
2023/05/22 03:57:22;;;;;;;34.53;27.45;;;16.40;99.90;;;;;;5070234;28;20032;-61
2023/05/22 03:59:48;;;;;;;30.65;26.90;;;16.40;99.90;;;;;;5068806;28;20037;-61
2023/05/22 04:02:15;;;;;;;28.60;25.08;;;16.40;99.90;;;;;;5052058;28;20048;-63
2023/05/22 04:04:44;;;;;;;29.58;24.45;;;16.40;99.90;;;;;;5068682;28;20044;-62
2023/05/22 04:07:13;;;;;;;29.67;24.60;;;16.40;99.90;;;;;;5070068;28;20119;-63
2023/05/22 04:09:40;;;;;;;26.48;23.10;;;16.40;99.90;;;;;;5068395;28;20427;-63
2023/05/22 04:12:06;;;;;;;26.88;23.83;;;16.40;99.90;;;;;;5068015;28;20055;-63
2023/05/22 04:14:31;;;;;;;28.98;25.30;;;16.40;99.90;;;;;;5069809;28;20057;-63
2023/05/22 04:16:58;;;;;;;30.70;26.05;;;16.40;99.90;;;;;;5070152;28;20502;-62
2023/05/22 04:19:26;;;;;;;34.22;27.83;;;16.40;99.90;;;;;;5069959;28;20036;-61
2023/05/22 04:21:53;;;;;;;31.23;27.67;;;16.40;99.90;;;;;;5068493;28;20029;-62
2023/05/22 04:24:21;;;;;;;27.00;22.83;;;16.40;99.90;;;;;;5069812;28;20498;-63
2023/05/22 04:26:48;;;;;;;32.33;27.63;;;16.40;99.90;;;;;;5069698;28;20028;-60
2023/05/22 04:29:13;;;;;;;31.02;27.73;;;16.40;99.90;;;;;;5052031;28;20487;-64
2023/05/22 04:31:39;;;;;;;30.65;26.15;;;16.40;99.90;;;;;;5069667;28;20111;-63
2023/05/22 04:34:06;;;;;;;34.00;27.33;;;16.40;99.90;;;;;;5068671;28;20028;-62
2023/05/22 04:36:31;;;;;;;30.38;26.83;;;16.40;99.90;;;;;;5069538;28;20102;-63
2023/05/22 04:38:59;;;;;;;28.50;25.40;;;16.40;99.90;;;;;;5069567;28;20032;-62
2023/05/22 04:41:25;;;;;;;30.10;26.70;;;16.30;99.90;;;;;;5069533;28;20032;-62
2023/05/22 04:43:51;;;;;;;31.38;27.52;;;16.40;99.90;;;;;;5068236;28;20051;-63
2023/05/22 04:46:18;;;;;;;29.92;26.73;;;16.40;99.90;;;;;;5068545;28;20044;-63
2023/05/22 04:48:44;;;;;;;28.63;25.15;;;16.40;99.90;;;;;;5068326;28;20032;-62
2023/05/22 04:51:09;;;;;;;34.20;27.77;;;16.40;99.90;;;;;;5068174;28;20098;-63
2023/05/22 04:53:37;;;;;;;33.83;28.50;;;16.30;99.90;;;;;;5068442;28;20036;-62
2023/05/22 04:56:03;;;;;;;28.92;25.80;;;16.30;99.90;;;;;;5069466;28;20045;-63
2023/05/22 04:58:29;;;;;;;36.80;28.73;;;16.30;99.90;;;;;;5069810;28;20040;-63
2023/05/22 05:00:56;;;;;;;36.55;29.30;;;16.30;99.90;;;;;;5069223;28;20051;-61
2023/05/22 05:03:24;;;;;;;32.40;26.85;;;16.30;99.90;;;;;;5068138;28;20061;-62
2023/05/22 05:05:50;;;;;;;36.08;29.17;;;16.30;99.90;;;;;;5069236;28;20399;-63
2023/05/22 05:08:16;;;;;;;31.08;27.48;;;16.30;99.90;;;;;;5069217;28;20492;-61
2023/05/22 05:10:42;;;;;;;32.95;28.50;;;16.30;99.90;;;;;;5068392;28;20044;-63
2023/05/22 05:13:08;;;;;;;31.38;27.58;;;16.30;99.90;;;;;;5069264;28;20074;-64
2023/05/22 05:15:33;;;;;;;31.30;26.83;;;16.30;99.90;;;;;;5069256;28;20048;-61
2023/05/22 05:17:59;;;;;;;31.77;27.55;;;16.20;99.90;;;;;;5069399;28;20036;-62
2023/05/22 05:20:26;;;;;;;33.28;27.00;;;16.20;99.90;;;;;;5051108;28;20040;-63
2023/05/22 05:22:52;;;;;;;31.02;27.63;;;16.20;99.90;;;;;;5068460;28;20488;-61
2023/05/22 05:25:17;;;;;;;31.75;27.75;;;16.20;99.90;;;;;;5072659;28;20033;-62
2023/05/22 05:27:43;;;;;;;32.92;28.73;;;16.20;99.90;;;;;;5071791;28;20036;-61
2023/05/22 05:30:09;;;;;;;32.05;27.27;;;16.20;99.90;;;;;;5071594;28;20045;-60
2023/05/22 05:32:35;;;;;;;33.20;28.73;;;16.20;99.90;;;;;;5071751;28;20045;-62
2023/05/22 05:35:01;;;;;;;34.17;28.58;;;16.20;99.90;;;;;;5072712;28;20051;-62
2023/05/22 05:37:26;;;;;;;31.77;27.77;;;16.20;99.90;;;;;;5071439;28;20058;-62
2023/05/22 05:39:52;;;;;;;32.50;28.90;;;16.20;99.90;;;;;;5073116;28;20079;-64
2023/05/22 05:42:18;;;;;;;33.92;29.13;;;16.20;99.90;;;;;;5072891;28;20036;-62
2023/05/22 05:44:44;;;;;;;34.38;29.73;;;16.20;99.90;;;;;;5072846;28;20127;-62
2023/05/22 05:47:10;;;;;;;33.30;28.05;;;16.20;99.90;;;;;;5071540;28;20075;-63
2023/05/22 05:49:35;;;;;;;33.58;29.23;;;16.20;99.90;;;;;;5071153;28;20083;-63
2023/05/22 05:52:01;;;;;;;32.85;29.10;;;16.20;99.90;;;;;;5071512;28;20411;-63
2023/05/22 05:54:26;;;;;;;33.63;29.92;;;16.20;99.90;;;;;;5072436;28;20390;-62
2023/05/22 05:56:52;;;;;;;33.15;29.17;;;16.30;99.90;;;;;;5071376;28;20051;-63
2023/05/22 05:59:18;;;;;;;35.25;30.27;;;16.30;99.90;;;;;;5071281;28;20119;-62
2023/05/22 06:01:45;;;;;;;33.63;29.70;;;16.30;99.90;;;;;;5072180;28;20037;-63
2023/05/22 06:04:12;;;;;;;35.70;29.55;;;16.40;99.90;;;;;;5054747;28;20462;-62
2023/05/22 06:06:38;;;;;;;33.53;29.92;;;16.50;99.90;;;;;;5070814;28;20036;-64
2023/05/22 06:09:07;;;;;;;34.58;30.02;;;16.60;99.90;;;;;;5072505;28;20067;-64
2023/05/22 06:11:33;;;;;;;34.30;29.52;;;16.60;99.90;;;;;;5071037;28;20065;-61
2023/05/22 06:13:59;;;;;;;30.48;27.30;;;16.70;99.90;;;;;;5054602;28;20139;-61
2023/05/22 06:16:25;;;;;;;33.42;29.48;;;16.80;99.90;;;;;;5070905;28;20047;-62
2023/05/22 06:18:51;;;;;;;31.88;28.10;;;16.80;99.90;;;;;;5071987;28;20778;-62
2023/05/22 06:21:20;;;;;;;35.30;28.80;;;16.90;99.90;;;;;;5072402;28;20036;-62
2023/05/22 06:23:46;;;;;;;31.77;28.00;;;17.00;99.90;;;;;;5070527;28;20060;-61
2023/05/22 06:26:12;;;;;;;33.80;27.45;;;17.00;99.90;;;;;;5071027;28;20155;-62
2023/05/22 06:28:38;;;;;;;28.08;24.92;;;17.00;99.90;;;;;;5071884;28;20148;-63
2023/05/22 06:31:04;;;;;;;31.17;26.77;;;17.00;99.90;;;;;;5070823;28;20063;-62
2023/05/22 06:33:30;;;;;;;30.45;27.05;;;17.00;99.90;;;;;;5070549;28;20028;-63
2023/05/22 06:35:57;;;;;;;29.40;26.33;;;17.10;99.90;;;;;;5070619;28;20068;-65
2023/05/22 06:38:23;;;;;;;29.23;26.02;;;17.10;99.90;;;;;;5072080;28;20037;-62
2023/05/22 06:40:48;;;;;;;29.73;25.40;;;17.10;99.90;;;;;;5070345;28;20040;-64
2023/05/22 06:43:14;;;;;;;27.45;24.33;;;17.10;99.90;;;;;;5071779;28;20395;-63
2023/05/22 06:45:39;;;;;;;34.05;26.90;;;17.10;99.90;;;;;;5070688;28;20052;-60
2023/05/22 06:48:05;;;;;;;28.85;25.20;;;17.10;99.90;;;;;;5071409;28;20044;-65
2023/05/22 06:50:31;;;;;;;29.80;24.08;;;17.20;99.90;;;;;;5070393;28;20040;-60
2023/05/22 06:52:56;;;;;;;27.35;23.67;;;17.10;99.90;;;;;;5070203;28;20376;-63
2023/05/22 06:55:22;;;;;;;29.73;22.35;;;17.10;99.90;;;;;;5053625;28;20067;-64
2023/05/22 06:57:48;;;;;;;28.15;22.70;;;17.10;99.90;;;;;;5071539;28;20113;-63
2023/05/22 07:00:14;;;;;;;25.13;22.35;;;17.10;99.90;;;;;;5071265;28;20040;-61
2023/05/22 07:02:40;;;;;;;29.35;23.20;;;17.00;99.90;;;;;;5070075;28;20076;-61
2023/05/22 07:05:06;;;;;;;24.88;22.10;;;17.00;99.90;;;;;;5069771;28;20045;-62
2023/05/22 07:07:31;;;;;;;22.80;20.40;;;17.10;99.90;;;;;;5070153;28;20511;-61
2023/05/22 07:09:57;;;;;;;23.33;20.70;;;17.00;99.90;;;;;;5069814;28;20044;-62
2023/05/22 07:12:25;;;;;;;23.63;20.33;;;17.00;99.90;;;;;;5071211;28;20063;-63
2023/05/22 07:14:51;;;;;;;23.92;20.05;;;17.00;99.90;;;;;;5071003;28;20086;-63
2023/05/22 07:17:20;;;;;;;22.55;18.50;;;17.00;99.90;;;;;;5053203;28;20028;-62
2023/05/22 07:19:47;;;;;;;22.75;18.05;;;17.00;99.90;;;;;;5071074;28;20029;-63
2023/05/22 07:22:13;;;;;;;19.08;16.95;;;17.00;99.90;;;;;;5070917;28;20040;-62
2023/05/22 07:24:39;;;;;;;22.98;17.73;;;17.10;99.90;;;;;;5069761;28;20048;-63
2023/05/22 07:27:05;;;;;;;20.30;17.10;;;17.10;99.90;;;;;;5069590;28;20045;-63
2023/05/22 07:29:30;;;;;;;20.25;16.50;;;17.20;99.90;;;;;;5070872;28;20547;-63
2023/05/22 07:31:56;;;;;;;20.48;15.45;;;17.10;99.90;;;;;;5069395;28;20040;-61
2023/05/22 07:34:22;;;;;;;21.35;17.30;;;17.10;99.90;;;;;;5070513;28;20512;-61
2023/05/22 07:36:48;;;;;;;20.10;16.00;;;17.20;99.90;;;;;;5069292;28;20053;-61
2023/05/22 07:39:14;;;;;;;19.35;15.95;;;17.20;99.90;;;;;;5069183;28;20041;-61
2023/05/22 07:41:40;;;;;;;19.15;15.27;;;17.20;99.90;;;;;;5070646;28;20073;-64
2023/05/22 07:44:06;;;;;;;19.02;14.98;;;17.20;99.90;;;;;;5070223;28;20041;-63
2023/05/22 07:46:34;;;;;;;20.65;15.55;;;17.20;99.90;;;;;;5068933;28;20052;-61
2023/05/22 07:48:59;;;;;;;17.63;14.65;;;17.30;99.90;;;;;;5070510;28;20036;-63
2023/05/22 07:51:25;;;;;;;17.63;14.10;;;17.30;99.90;;;;;;5069293;28;20054;-61
2023/05/22 07:53:53;;;;;;;17.92;14.57;;;17.40;99.90;;;;;;5069085;28;20787;-63
2023/05/22 07:56:18;;;;;;;20.80;14.88;;;17.40;99.90;;;;;;5070397;28;20032;-62
2023/05/22 07:58:47;;;;;;;17.80;14.75;;;17.50;99.90;;;;;;5070037;28;20037;-62
2023/05/22 08:01:14;;;;;;;18.20;13.90;;;17.50;99.90;;;;;;5068877;28;20048;-61
2023/05/22 08:03:40;;;;;;;18.65;13.57;;;17.60;99.90;;;;;;5070295;28;20044;-63
2023/05/22 08:06:06;;;;;;;21.80;14.10;;;17.60;99.90;;;;;;5068788;28;20048;-61
2023/05/22 08:08:32;;;;;;;21.92;13.30;;;17.60;99.90;;;;;;5068800;28;20291;-63
2023/05/22 08:10:58;;;;;;;25.40;15.05;;;17.60;99.90;;;;;;5070071;28;20542;-61
2023/05/22 08:13:23;;;;;;;17.30;13.35;;;17.70;99.90;;;;;;5068957;28;20127;-64
2023/05/22 08:15:49;;;;;;;19.63;13.07;;;17.80;99.90;;;;;;5068385;28;20044;-63
2023/05/22 08:18:15;;;;;;;22.73;12.60;;;17.90;99.90;;;;;;5070093;28;20205;-62
2023/05/22 08:20:40;;;;;;;19.48;13.00;;;18.00;99.90;;;;;;5068548;28;20037;-63
2023/05/22 08:23:06;;;;;;;20.45;12.55;;;18.20;99.90;;;;;;5069900;28;20086;-61
2023/05/22 08:25:32;;;;;;;18.85;12.50;;;18.40;99.90;;;;;;5068950;28;20440;-65
2023/05/22 08:27:58;;;;;;;20.33;12.02;;;18.60;99.90;;;;;;5069671;28;20123;-61
2023/05/22 08:30:23;;;;;;;18.05;11.07;;;18.70;99.90;;;;;;5068352;28;20058;-61
2023/05/22 08:32:49;;;;;;;15.15;11.40;;;18.80;99.90;;;;;;5067748;28;20045;-64
2023/05/22 08:35:15;;;;;;;15.48;11.35;;;19.00;99.90;;;;;;5068010;28;20499;-64
2023/05/22 08:37:41;;;;;;;18.35;10.88;;;19.00;99.90;;;;;;5069415;28;20105;-63
2023/05/22 08:40:11;;;;;;;17.38;11.45;;;19.10;99.90;;;;;;5069500;28;20044;-62
2023/05/22 08:42:37;;;;;;;16.70;10.38;;;19.20;99.90;;;;;;5069597;28;20123;-63
2023/05/22 08:45:05;;;;;;;18.17;10.15;;;19.40;99.90;;;;;;5068817;28;20063;-63
2023/05/22 08:47:34;;;;;;;18.83;9.93;;;19.60;99.90;;;;;;5068491;28;20048;-63
2023/05/22 08:50:00;;;;;;;15.90;9.65;;;19.80;99.90;;;;;;5069438;28;20075;-64
2023/05/22 08:52:51;;;;;;;16.33;9.30;;;20.00;99.90;;;;;;5069612;28;20464;-61
2023/05/22 08:55:18;;;;;;;15.68;9.18;;;20.10;99.90;;;;;;5068104;28;20076;-65
2023/05/22 08:57:45;;;;;;;15.60;9.68;;;20.00;99.90;;;;;;5067775;28;20039;-61
2023/05/22 09:00:11;;;;;;;13.95;9.95;;;20.10;99.90;;;;;;5069331;28;20111;-62
2023/05/22 09:02:37;;;;;;;18.38;9.50;;;20.30;99.90;;;;;;5069601;28;20028;-64
2023/05/22 09:05:06;;;;;;;14.77;9.90;;;20.50;99.90;;;;;;5068163;28;20040;-63
2023/05/22 09:07:32;;;;;;;18.13;10.10;;;20.80;99.90;;;;;;5069529;28;20476;-62
2023/05/22 09:09:57;;;;;;;13.23;8.90;;;21.00;99.90;;;;;;5068122;28;20040;-62
2023/05/22 09:12:25;;;;;;;15.02;9.10;;;21.20;99.90;;;;;;5069262;28;20032;-62
2023/05/22 09:14:51;;;;;;;15.38;8.50;;;21.40;99.90;;;;;;5067963;28;20044;-61
2023/05/22 09:17:19;;;;;;;15.57;8.73;;;21.50;99.90;;;;;;5067833;28;20071;-63
2023/05/22 09:19:46;;;;;;;16.95;8.48;;;21.40;99.90;;;;;;5068082;28;20041;-63
2023/05/22 09:22:12;;;;;;;13.20;8.43;;;21.50;99.90;;;;;;5069065;28;20076;-64
2023/05/22 09:24:45;;;;;;;14.43;8.40;;;21.60;99.90;;;;;;5069645;28;20029;-63
2023/05/22 09:27:11;;;;;;;11.98;9.13;;;21.90;99.90;;;;;;5069156;28;20432;-63
2023/05/22 09:29:58;;;;;;;14.90;9.20;;;22.10;99.90;;;;;;5067913;28;20120;-64
2023/05/22 09:32:27;;;;;;;12.23;8.70;;;22.40;99.90;;;;;;5069008;28;20047;-64
2023/05/22 09:34:53;;;;;;;19.00;8.63;;;22.60;99.90;;;;;;5067620;28;20058;-64
2023/05/22 09:37:19;;;;;;;11.38;8.38;;;22.70;99.90;;;;;;5068897;28;20045;-64
2023/05/22 09:39:46;;;;;;;12.88;8.95;;;22.80;99.90;;;;;;5068163;28;20036;-63
2023/05/22 09:42:15;;;;;;;11.93;8.05;;;23.00;99.90;;;;;;5069044;28;20116;-66
2023/05/22 09:44:43;;;;;;;11.48;7.53;;;23.00;99.90;;;;;;5069018;28;20497;-63
2023/05/22 09:47:08;;;;;;;13.10;8.43;;;23.20;99.90;;;;;;5067720;28;20040;-61
2023/05/22 09:49:44;;;;;;;13.13;7.97;;;23.50;99.90;;;;;;5068871;28;20043;-63
2023/05/22 09:52:11;;;;;;;14.40;8.55;;;23.60;99.90;;;;;;5067753;28;20047;-63
2023/05/22 09:54:54;;;;;;;14.73;8.63;;;23.80;99.90;;;;;;5067834;28;20523;-62
2023/05/22 09:57:21;;;;;;;17.20;9.23;;;24.00;99.90;;;;;;5068940;28;20549;-63
2023/05/22 09:59:57;;;;;;;15.05;9.15;;;24.20;99.90;;;;;;5067427;28;20079;-64
2023/05/22 10:02:24;;;;;;;11.48;8.98;;;24.00;99.90;;;;;;5069018;28;20474;-62
2023/05/22 10:04:51;;;;;;;13.73;9.05;;;24.00;99.90;;;;;;5067756;28;20075;-63
2023/05/22 10:07:34;;;;;;;14.18;9.27;;;23.80;99.90;;;;;;5067472;28;20045;-62
2023/05/22 10:10:10;;;;;;;14.93;8.95;;;23.40;99.90;;;;;;5068177;28;20047;-62
2023/05/22 10:12:46;;;;;;;14.60;9.30;;;23.20;99.90;;;;;;5072352;28;20069;-61
2023/05/22 10:15:12;;;;;;;14.50;8.90;;;23.00;99.90;;;;;;5072323;28;20403;-62
2023/05/22 10:17:39;;;;;;;15.98;9.48;;;23.00;99.90;;;;;;5072273;28;20051;-62
2023/05/22 10:20:07;;;;;;;16.38;10.05;;;23.00;99.90;;;;;;5070855;28;20111;-64
2023/05/22 10:22:37;;;;;;;18.20;10.13;;;23.30;99.90;;;;;;5072031;28;20032;-63
2023/05/22 10:25:03;;;;;;;12.80;9.38;;;23.70;99.90;;;;;;5072050;28;20119;-63
2023/05/22 10:27:29;;;;;;;14.80;9.80;;;24.10;99.90;;;;;;5072262;28;20033;-63
2023/05/22 10:30:02;;;;;;;16.20;9.60;;;24.40;99.90;;;;;;5070253;28;20089;-61
2023/05/22 10:32:45;;;;;;;12.98;9.30;;;24.60;99.90;;;;;;5070856;28;20086;-63
2023/05/22 10:35:19;;;;;;;14.05;10.23;;;24.50;99.90;;;;;;5070550;28;20040;-62
2023/05/22 10:37:55;;;;;;;14.60;10.48;;;24.60;99.90;;;;;;5072026;28;20470;-62
2023/05/22 10:40:27;;;;;;;13.18;9.68;;;24.50;99.90;;;;;;5072011;28;20419;-62
2023/05/22 10:42:59;;;;;;;11.30;10.05;;;24.40;99.90;;;;;;5070330;28;20066;-64
2023/05/22 10:45:27;;;;;;;12.95;9.77;;;24.20;99.90;;;;;;5070408;28;20051;-63
2023/05/22 10:48:13;;;;;;;19.08;11.07;;;24.20;99.90;;;;;;5071565;28;20123;-60
2023/05/22 10:50:48;;;;;;;15.50;10.55;;;24.10;99.90;;;;;;5073322;28;20025;-66
2023/05/22 10:53:25;;;;;;;14.30;12.20;;;24.00;99.90;;;;;;5071701;28;20040;-62
2023/05/22 10:55:53;;;;;;;15.40;11.00;;;23.80;99.90;;;;;;5070131;28;20041;-66
2023/05/22 10:58:33;;;;;;;14.85;11.07;;;23.70;99.90;;;;;;5070091;28;20037;-64
2023/05/22 11:01:19;;;;;;;14.77;10.85;;;23.70;99.90;;;;;;5071279;28;20620;-62
2023/05/22 11:03:52;;;;;;;11.85;10.25;;;23.70;99.90;;;;;;5070120;28;20068;-63
2023/05/22 11:06:30;;;;;;;14.75;10.75;;;23.70;99.90;;;;;;5071271;28;20380;-62
2023/05/22 11:08:56;;;;;;;16.58;10.57;;;24.00;99.90;;;;;;5069809;28;20040;-64
2023/05/22 11:11:25;;;;;;;12.60;10.70;;;24.50;99.90;;;;;;5071341;28;20032;-64
2023/05/22 11:14:03;;;;;;;14.00;10.38;;;24.80;99.90;;;;;;5070214;28;20494;-60
2023/05/22 11:16:32;;;;;;;15.25;10.68;;;24.90;99.90;;;;;;5071072;28;20052;-65
2023/05/22 11:19:08;;;;;;;13.30;10.82;;;24.90;99.90;;;;;;5069779;28;20072;-63
2023/05/22 11:21:45;;;;;;;14.07;11.35;;;24.80;99.90;;;;;;5070688;28;20574;-63
2023/05/22 11:24:12;;;;;;;15.48;10.40;;;24.60;99.90;;;;;;5070005;28;20059;-64
2023/05/22 11:26:41;;;;;;;13.60;10.32;;;24.60;99.90;;;;;;5071104;28;20110;-64
2023/05/22 11:29:07;;;;;;;14.52;10.60;;;24.50;99.90;;;;;;5069218;28;20055;-62
2023/05/22 11:31:34;;;;;;;12.60;10.02;;;24.40;99.90;;;;;;5069678;28;20037;-66
2023/05/22 11:34:00;;;;;;;12.73;10.40;;;24.60;99.90;;;;;;5070046;28;20051;-63
2023/05/22 11:36:26;;;;;;;14.70;11.43;;;24.80;99.90;;;;;;5069154;28;20048;-64
2023/05/22 11:38:59;;;;;;;15.38;11.38;;;24.90;99.90;;;;;;5070698;28;20181;-62
2023/05/22 11:41:29;;;;;;;15.32;11.23;;;25.00;99.90;;;;;;5069244;28;20040;-62
2023/05/22 11:43:55;;;;;;;14.30;10.52;;;25.00;99.90;;;;;;5069308;28;20036;-66
2023/05/22 11:46:21;;;;;;;14.05;10.77;;;25.10;99.90;;;;;;5052227;28;20117;-60
2023/05/22 11:48:47;;;;;;;13.82;10.45;;;25.10;99.90;;;;;;5070636;28;20072;-62
2023/05/22 11:51:13;;;;;;;12.63;10.98;;;25.20;99.90;;;;;;5070606;28;20375;-63
2023/05/22 11:53:40;;;;;;;16.88;11.70;;;25.30;99.90;;;;;;5070424;28;20035;-63
2023/05/22 11:56:06;;;;;;;16.05;11.77;;;25.30;99.90;;;;;;5068902;28;20517;-62
2023/05/22 11:58:31;;;;;;;15.20;11.88;;;25.20;99.90;;;;;;5068843;28;20040;-61
2023/05/22 12:01:02;;;;;;;13.77;10.38;;;25.30;99.90;;;;;;5070315;28;20045;-64
2023/05/22 12:03:29;;;;;;;14.55;11.35;;;25.30;99.90;;;;;;5068884;28;20087;-62
2023/05/22 12:05:55;;;;;;;16.40;11.50;;;25.20;99.90;;;;;;5070219;28;20417;-63
2023/05/22 12:08:21;;;;;;;14.02;10.85;;;25.20;99.90;;;;;;5069124;28;20080;-63
2023/05/22 12:10:51;;;;;;;12.73;9.77;;;25.20;99.90;;;;;;5068743;28;20548;-65
2023/05/22 12:13:28;;;;;;;14.70;11.35;;;25.40;99.90;;;;;;5068852;28;20048;-62
2023/05/22 12:15:56;;;;;;;11.38;9.55;;;25.40;99.90;;;;;;5068791;28;20053;-64
2023/05/22 12:18:22;;;;;;;18.20;10.50;;;25.50;99.90;;;;;;5070277;28;20040;-62
2023/05/22 12:20:53;;;;;;;13.75;10.90;;;25.50;99.90;;;;;;5051832;28;20041;-62
2023/05/22 12:23:26;;;;;;;14.13;10.10;;;25.50;99.90;;;;;;5068809;28;20028;-63
2023/05/22 12:26:07;;;;;;;10.85;9.75;;;25.50;99.90;;;;;;5069505;28;20085;-62
2023/05/22 12:28:33;;;;;;;10.85;9.35;;;25.50;99.90;;;;;;5069924;28;20048;-63
2023/05/22 12:30:59;;;;;;;12.63;8.65;;;25.40;99.90;;;;;;5069681;28;20422;-64
2023/05/22 12:33:26;;;;;;;16.20;9.95;;;25.50;99.90;;;;;;5067662;28;20037;-62